createdAt,value
2022-09-12T00:01:19.563Z,13.74
2022-09-12T00:03:48.303Z,13.72
2022-09-12T00:06:29.754Z,13.77
2022-09-12T00:09:09.096Z,13.72
2022-09-12T00:11:39.024Z,13.76
2022-09-12T00:14:08.769Z,13.75
2022-09-12T00:16:37.516Z,13.75
2022-09-12T00:19:06.399Z,13.72
2022-09-12T00:21:36.612Z,13.71
2022-09-12T00:24:04.602Z,13.77
2022-09-12T00:26:32.550Z,13.84
2022-09-12T00:29:00.042Z,13.94
2022-09-12T00:31:28.216Z,14.00
2022-09-12T00:34:00.753Z,14.04
2022-09-12T00:36:30.419Z,14.12
2022-09-12T00:38:58.644Z,14.15
2022-09-12T00:41:32.554Z,14.21
2022-09-12T00:44:24.560Z,14.20
2022-09-12T00:47:16.243Z,14.22
2022-09-12T00:49:54.986Z,14.23
2022-09-12T00:52:46.266Z,14.19
2022-09-12T00:55:27.895Z,14.23
2022-09-12T00:58:05.073Z,14.19
2022-09-12T01:00:32.826Z,14.15
2022-09-12T01:03:09.209Z,14.12
2022-09-12T01:05:45.392Z,14.09
2022-09-12T01:08:12.856Z,14.08
2022-09-12T01:10:42.637Z,14.11
2022-09-12T01:13:11.364Z,14.09
2022-09-12T01:15:40.433Z,14.12
2022-09-12T01:18:25.055Z,14.07
2022-09-12T01:21:17.037Z,14.02
2022-09-12T01:24:02.899Z,14.08
2022-09-12T01:27:04.120Z,14.12
2022-09-12T01:30:21.200Z,14.12
2022-09-12T01:33:37.049Z,14.17
2022-09-12T01:36:30.604Z,14.15
2022-09-12T01:39:08.610Z,14.11
2022-09-12T01:42:10.347Z,14.02
2022-09-12T01:44:56.112Z,13.97
2022-09-12T01:47:39.769Z,13.92
2022-09-12T01:50:21.708Z,13.92
2022-09-12T01:53:14.849Z,13.90
2022-09-12T01:55:51.504Z,13.92
2022-09-12T01:58:40.579Z,13.87
2022-09-12T02:01:20.932Z,13.84
2022-09-12T02:04:15.793Z,13.82
2022-09-12T02:07:06.849Z,13.85
2022-09-12T02:09:56.645Z,13.86
2022-09-12T02:12:35.160Z,13.85
2022-09-12T02:15:08.657Z,13.86
2022-09-12T02:17:47.286Z,13.85
2022-09-12T02:20:44.015Z,13.94
2022-09-12T02:23:15.738Z,13.98
2022-09-12T02:25:48.935Z,14.01
2022-09-12T02:28:31.567Z,13.96
2022-09-12T02:31:47.730Z,13.98
2022-09-12T02:34:33.354Z,14.03
2022-09-12T02:37:29.572Z,14.10
2022-09-12T02:39:58.110Z,14.09
2022-09-12T02:42:26.317Z,14.10
2022-09-12T02:44:56.512Z,14.08
2022-09-12T02:47:42.243Z,14.06
2022-09-12T02:50:10.656Z,14.02
2022-09-12T02:52:38.852Z,14.02
2022-09-12T02:55:07.836Z,14.03
2022-09-12T02:57:35.330Z,14.07
2022-09-12T03:00:03.168Z,14.10
2022-09-12T03:03:09.640Z,14.13
2022-09-12T03:05:59.885Z,14.16
2022-09-12T03:08:46.568Z,14.19
2022-09-12T03:11:38.056Z,14.17
2022-09-12T03:14:43.776Z,14.12
2022-09-12T03:17:26.193Z,14.10
2022-09-12T03:20:09.669Z,14.11
2022-09-12T03:22:59.158Z,14.10
2022-09-12T03:25:49.098Z,14.06
2022-09-12T03:28:20.186Z,14.11
2022-09-12T03:30:51.557Z,14.10
2022-09-12T03:33:24.992Z,14.12
2022-09-12T03:35:54.801Z,14.10
2022-09-12T03:38:22.170Z,14.07
2022-09-12T03:40:54.064Z,14.07
2022-09-12T03:43:22.265Z,14.05
2022-09-12T03:45:53.488Z,13.99
2022-09-12T03:48:21.234Z,13.98
2022-09-12T03:50:48.421Z,13.94
2022-09-12T03:53:17.420Z,13.89
2022-09-12T03:55:45.648Z,13.86
2022-09-12T03:58:12.920Z,13.82
2022-09-12T04:00:41.040Z,13.81
2022-09-12T04:03:09.294Z,13.78
2022-09-12T04:05:36.859Z,13.77
2022-09-12T04:08:04.262Z,13.74
2022-09-12T04:10:32.392Z,13.62
2022-09-12T04:12:59.606Z,13.58
2022-09-12T04:15:27.024Z,13.57
2022-09-12T04:17:54.282Z,13.59
2022-09-12T04:20:21.508Z,13.58
2022-09-12T04:22:48.887Z,13.58
2022-09-12T04:25:17.354Z,13.56
2022-09-12T04:27:44.586Z,13.52
2022-09-12T04:30:12.662Z,13.50
2022-09-12T04:32:41.081Z,13.47
2022-09-12T04:35:08.519Z,13.52
2022-09-12T04:37:36.037Z,13.57
2022-09-12T04:40:03.596Z,13.63
2022-09-12T04:42:30.904Z,13.70
2022-09-12T04:44:58.412Z,13.79
2022-09-12T04:47:25.605Z,13.87
2022-09-12T04:49:52.787Z,13.94
2022-09-12T04:52:20.384Z,13.98
2022-09-12T04:54:47.617Z,14.03
2022-09-12T04:57:14.822Z,14.05
2022-09-12T04:59:42.666Z,14.02
2022-09-12T05:02:09.893Z,13.96
2022-09-12T05:04:37.187Z,13.97
2022-09-12T05:07:05.878Z,13.88
2022-09-12T05:09:33.173Z,14.00
2022-09-12T05:12:05.314Z,14.15
2022-09-12T05:14:35.085Z,14.37
2022-09-12T05:17:06.001Z,14.55
2022-09-12T05:19:33.570Z,14.66
2022-09-12T05:22:00.922Z,14.77
2022-09-12T05:24:28.417Z,14.85
2022-09-12T05:26:55.784Z,14.88
2022-09-12T05:29:23.050Z,14.97
2022-09-12T05:31:52.316Z,15.10
2022-09-12T05:34:21.167Z,15.24
2022-09-12T05:36:49.426Z,15.43
2022-09-12T05:39:17.010Z,15.52
2022-09-12T05:41:44.508Z,15.60
2022-09-12T05:44:14.352Z,15.84
2022-09-12T05:46:45.218Z,16.07
2022-09-12T05:49:13.872Z,16.22
2022-09-12T05:51:45.942Z,16.49
2022-09-12T05:54:18.057Z,16.66
2022-09-12T05:56:46.583Z,16.87
2022-09-12T05:59:20.878Z,17.07
2022-09-12T06:01:49.233Z,17.15
2022-09-12T06:04:17.292Z,17.36
2022-09-12T06:06:46.699Z,17.43
2022-09-12T06:09:16.898Z,17.57
2022-09-12T06:11:46.038Z,17.82
2022-09-12T06:14:17.046Z,18.10
2022-09-12T06:16:44.663Z,18.30
2022-09-12T06:19:19.578Z,18.27
2022-09-12T06:21:49.555Z,18.31
2022-09-12T06:24:18.764Z,18.06
2022-09-12T06:26:47.889Z,17.97
2022-09-12T06:29:15.934Z,18.09
2022-09-12T06:31:44.037Z,18.01
2022-09-12T06:34:15.571Z,18.26
2022-09-12T06:36:47.006Z,18.38
2022-09-12T06:39:21.012Z,18.17
2022-09-12T06:41:51.349Z,18.16
2022-09-12T06:44:22.844Z,18.23
2022-09-12T06:46:50.600Z,18.51
2022-09-12T06:49:17.940Z,18.93
2022-09-12T06:51:45.313Z,19.14
2022-09-12T06:54:15.523Z,18.97
2022-09-12T06:56:43.136Z,19.16
2022-09-12T06:59:10.485Z,19.47
2022-09-12T07:01:38.336Z,20.04
2022-09-12T07:04:05.921Z,24.68
2022-09-12T07:06:42.497Z,26.86
2022-09-12T07:09:16.417Z,24.98
2022-09-12T07:11:45.904Z,23.33
2022-09-12T07:14:14.790Z,23.59
2022-09-12T07:16:43.117Z,24.91
2022-09-12T07:19:11.139Z,26.00
2022-09-12T07:21:41.789Z,24.54
2022-09-12T07:24:10.955Z,24.82
2022-09-12T07:26:40.719Z,24.96
2022-09-12T07:32:04.496Z,32.41
2022-09-12T07:34:32.692Z,35.97
2022-09-12T07:36:59.946Z,33.17
2022-09-12T07:39:27.242Z,29.12
2022-09-12T07:41:54.994Z,26.20
2022-09-12T07:44:22.930Z,24.72
2022-09-12T07:46:50.809Z,23.56
2022-09-12T07:49:18.163Z,24.24
2022-09-12T07:51:45.775Z,25.36
2022-09-12T07:54:12.978Z,24.77
2022-09-12T07:56:40.945Z,23.65
2022-09-12T07:59:08.909Z,24.43
2022-09-12T08:01:36.521Z,23.13
2022-09-12T08:04:05.333Z,22.46
2022-09-12T08:06:36.050Z,25.88
2022-09-12T08:09:05.952Z,27.80
2022-09-12T08:11:33.899Z,35.43
2022-09-12T08:14:03.145Z,39.83
2022-09-12T08:16:32.518Z,43.47
2022-09-12T08:19:02.584Z,43.96
2022-09-12T08:21:32.525Z,46.53
2022-09-12T08:24:03.826Z,47.49
2022-09-12T08:26:34.622Z,43.06
2022-09-12T08:29:02.582Z,39.15
2022-09-12T08:31:32.018Z,35.19
2022-09-12T08:34:00.646Z,31.55
2022-09-12T08:36:29.725Z,29.06
2022-09-12T08:39:04.682Z,27.60
2022-09-12T08:41:40.827Z,35.67
2022-09-12T08:44:20.230Z,32.28
2022-09-12T08:47:24.106Z,41.69
2022-09-12T08:50:04.523Z,46.09
2022-09-12T08:52:52.028Z,45.91
2022-09-12T08:55:43.555Z,49.80
2022-09-12T08:58:20.988Z,52.53
2022-09-12T09:01:20.874Z,44.58
2022-09-12T09:04:31.837Z,39.45
2022-09-12T09:07:48.788Z,40.41
2022-09-12T09:10:35.604Z,38.23
2022-09-12T09:13:45.748Z,46.07
2022-09-12T09:16:36.123Z,51.17
2022-09-12T09:19:12.900Z,53.33
2022-09-12T09:21:58.829Z,46.40
2022-09-12T09:24:40.903Z,52.27
2022-09-12T09:27:41.689Z,48.64
2022-09-12T09:30:19.941Z,45.27
2022-09-12T09:32:59.871Z,51.43
2022-09-12T09:35:44.931Z,54.59
2022-09-12T09:38:50.414Z,55.00
2022-09-12T09:41:49.778Z,53.11
2022-09-12T09:44:18.074Z,47.60
2022-09-12T09:46:45.356Z,43.01
2022-09-12T09:49:17.059Z,44.74
2022-09-12T09:51:44.946Z,51.13
2022-09-12T09:54:28.235Z,54.79
2022-09-12T09:56:56.636Z,48.10
2022-09-12T09:59:31.314Z,41.23
2022-09-12T10:02:03.874Z,43.12
2022-09-12T10:04:40.684Z,48.05
2022-09-12T10:07:19.927Z,53.76
2022-09-12T10:10:14.375Z,56.10
2022-09-12T10:12:42.914Z,59.48
2022-09-12T10:15:36.679Z,60.24
2022-09-12T10:18:04.534Z,60.87
2022-09-12T10:20:45.184Z,61.31
2022-09-12T10:23:41.080Z,62.60
2022-09-12T10:26:14.713Z,63.37
2022-09-12T10:28:54.954Z,63.71
2022-09-12T10:31:35.346Z,65.20
2022-09-12T10:34:02.830Z,65.20
2022-09-12T10:36:40.569Z,63.32
2022-09-12T10:39:19.370Z,64.24
2022-09-12T10:41:47.411Z,65.20
2022-09-12T10:44:26.163Z,66.07
2022-09-12T10:46:54.550Z,66.69
2022-09-12T10:49:31.557Z,59.24
2022-09-12T10:52:24.516Z,51.81
2022-09-12T10:54:52.907Z,47.90
2022-09-12T10:58:22.032Z,57.91
2022-09-12T11:01:02.911Z,62.18
2022-09-12T11:04:18.746Z,52.01
2022-09-12T11:07:27.160Z,51.73
2022-09-12T11:10:54.809Z,60.37
2022-09-12T11:14:00.503Z,59.32
2022-09-12T11:16:33.585Z,49.29
2022-09-12T11:19:11.255Z,50.74
2022-09-12T11:21:45.209Z,49.99
2022-09-12T11:24:40.424Z,52.76
2022-09-12T11:27:22.064Z,56.25
2022-09-12T11:30:15.049Z,51.52
2022-09-12T11:33:06.579Z,48.17
2022-09-12T11:35:49.751Z,51.06
2022-09-12T11:38:47.694Z,50.59
2022-09-12T11:41:36.879Z,44.46
2022-09-12T11:44:26.608Z,49.18
2022-09-12T11:46:54.142Z,54.03
2022-09-12T11:49:51.048Z,56.78
2022-09-12T11:52:27.053Z,57.91
2022-09-12T11:55:22.935Z,55.14
2022-09-12T11:58:00.078Z,56.85
2022-09-12T12:00:47.169Z,60.19
2022-09-12T12:03:42.935Z,59.30
2022-09-12T12:06:30.316Z,53.11
2022-09-12T12:08:58.576Z,55.05
2022-09-12T12:11:41.990Z,48.89
2022-09-12T12:14:30.990Z,44.68
2022-09-12T12:16:58.686Z,48.00
2022-09-12T12:19:36.243Z,51.53
2022-09-12T12:22:29.655Z,54.60
2022-09-12T12:25:13.202Z,56.07
2022-09-12T12:27:55.175Z,55.91
2022-09-12T12:30:31.460Z,57.48
2022-09-12T12:33:13.273Z,56.65
2022-09-12T12:36:01.732Z,53.08
2022-09-12T12:38:39.205Z,50.13
2022-09-12T12:41:18.627Z,54.60
2022-09-12T12:43:51.677Z,56.44
2022-09-12T12:46:39.231Z,57.35
2022-09-12T12:49:28.561Z,56.84
2022-09-12T12:52:01.665Z,58.14
2022-09-12T12:54:52.849Z,58.16
2022-09-12T12:57:24.928Z,58.10
2022-09-12T13:00:20.713Z,57.96
2022-09-12T13:03:28.952Z,57.59
2022-09-12T13:06:03.372Z,56.84
2022-09-12T13:08:34.862Z,57.96
2022-09-12T13:11:27.071Z,55.56
2022-09-12T13:14:04.486Z,51.86
2022-09-12T13:16:55.982Z,53.01
2022-09-12T13:19:36.321Z,47.24
2022-09-12T13:22:10.206Z,47.25
2022-09-12T13:24:49.252Z,46.02
2022-09-12T13:27:25.761Z,49.03
2022-09-12T13:30:15.233Z,51.23
2022-09-12T13:32:44.030Z,52.72
2022-09-12T13:35:24.198Z,53.21
2022-09-12T13:38:29.614Z,53.36
2022-09-12T13:41:34.678Z,53.39
2022-09-12T13:44:03.967Z,52.73
2022-09-12T13:46:34.681Z,51.78
2022-09-12T13:49:16.670Z,52.48
2022-09-12T13:51:44.261Z,49.52
2022-09-12T13:54:22.640Z,51.03
2022-09-12T13:56:51.915Z,51.59
2022-09-12T13:59:19.178Z,51.36
2022-09-12T14:01:48.584Z,52.07
2022-09-12T14:04:44.266Z,51.97
2022-09-12T14:07:22.268Z,51.67
2022-09-12T14:09:59.791Z,52.10
2022-09-12T14:12:43.614Z,46.80
2022-09-12T14:15:25.682Z,48.34
2022-09-12T14:18:01.159Z,48.10
2022-09-12T14:20:32.586Z,48.77
2022-09-12T14:23:28.343Z,50.00
2022-09-12T14:26:00.175Z,49.49
2022-09-12T14:28:30.329Z,48.04
2022-09-12T14:31:01.698Z,47.10
2022-09-12T14:33:33.783Z,47.83
2022-09-12T14:36:32.246Z,47.85
2022-09-12T14:39:07.368Z,47.04
2022-09-12T14:41:40.992Z,44.65
2022-09-12T14:44:17.436Z,40.95
2022-09-12T14:46:45.811Z,38.69
2022-09-12T14:49:35.753Z,36.09
2022-09-12T14:52:23.365Z,34.01
2022-09-12T14:55:17.314Z,32.33
2022-09-12T14:57:45.357Z,31.45
2022-09-12T15:00:12.497Z,30.20
2022-09-12T15:02:42.348Z,29.81
2022-09-12T15:05:12.480Z,29.09
2022-09-12T15:07:51.147Z,28.68
2022-09-12T15:10:31.146Z,28.06
2022-09-12T15:13:14.549Z,27.70
2022-09-12T15:15:46.547Z,27.64
2022-09-12T15:18:14.940Z,27.32
2022-09-12T15:20:45.668Z,26.92
2022-09-12T15:23:52.058Z,26.62
2022-09-12T15:26:27.548Z,26.50
2022-09-12T15:28:55.025Z,26.37
2022-09-12T15:31:31.272Z,26.21
2022-09-12T15:34:02.270Z,26.24
2022-09-12T15:36:29.894Z,26.23
2022-09-12T15:38:57.682Z,26.14
2022-09-12T15:41:39.419Z,26.03
2022-09-12T15:44:12.333Z,25.95
2022-09-12T15:46:40.548Z,25.95
2022-09-12T15:49:08.154Z,25.69
2022-09-12T15:51:35.287Z,25.36
2022-09-12T15:54:04.851Z,25.03
2022-09-12T15:56:33.022Z,24.82
2022-09-12T15:59:00.446Z,24.70
2022-09-12T16:01:29.182Z,24.57
2022-09-12T16:03:57.588Z,24.43
2022-09-12T16:06:25.013Z,24.30
2022-09-12T16:08:52.209Z,24.21
2022-09-12T16:11:25.991Z,24.07
2022-09-12T16:13:55.831Z,23.84
2022-09-12T16:16:23.500Z,23.67
2022-09-12T16:18:52.279Z,23.41
2022-09-12T16:21:19.597Z,23.05
2022-09-12T16:23:48.518Z,22.74
2022-09-12T16:26:16.598Z,22.50
2022-09-12T16:28:44.307Z,22.25
2022-09-12T16:31:14.277Z,22.11
2022-09-12T16:33:41.907Z,21.90
2022-09-12T16:36:13.632Z,21.79
2022-09-12T16:38:47.656Z,21.66
2022-09-12T16:41:17.024Z,21.51
2022-09-12T16:43:45.627Z,21.39
2022-09-12T16:46:20.729Z,21.20
2022-09-12T16:48:54.513Z,21.07
2022-09-12T16:51:37.270Z,20.88
2022-09-12T16:54:05.249Z,20.73
2022-09-12T16:56:32.493Z,20.61
2022-09-12T16:58:59.718Z,20.48
2022-09-12T17:01:27.580Z,20.41
2022-09-12T17:03:57.560Z,20.37
2022-09-12T17:06:27.475Z,20.28
2022-09-12T17:09:04.393Z,20.26
2022-09-12T17:11:38.312Z,20.11
2022-09-12T17:14:08.706Z,20.06
2022-09-12T17:16:43.461Z,20.00
2022-09-12T17:19:26.813Z,19.92
2022-09-12T17:21:54.859Z,19.81
2022-09-12T17:24:23.984Z,19.74
2022-09-12T17:26:52.447Z,19.68
2022-09-12T17:29:20.365Z,19.60
2022-09-12T17:31:49.331Z,19.55
2022-09-12T17:34:17.912Z,19.42
2022-09-12T17:36:48.375Z,19.35
2022-09-12T17:39:16.286Z,19.24
2022-09-12T17:41:46.300Z,19.09
2022-09-12T17:44:15.383Z,19.05
2022-09-12T17:46:44.031Z,18.95
2022-09-12T17:49:14.925Z,18.91
2022-09-12T17:51:44.027Z,18.91
2022-09-12T17:54:16.305Z,18.83
2022-09-12T17:56:46.857Z,18.77
2022-09-12T17:59:19.203Z,18.69
2022-09-12T18:02:06.118Z,18.67
2022-09-12T18:04:34.285Z,18.64
2022-09-12T18:07:01.526Z,18.63
2022-09-12T18:09:29.305Z,18.60
2022-09-12T18:11:57.407Z,18.61
2022-09-12T18:14:27.889Z,18.62
2022-09-12T18:16:57.287Z,18.56
2022-09-12T18:19:25.133Z,18.53
2022-09-12T18:21:52.491Z,18.44
2022-09-12T18:24:20.222Z,18.37
2022-09-12T18:26:48.284Z,18.28
2022-09-12T18:29:17.049Z,18.21
2022-09-12T18:31:45.391Z,18.18
2022-09-12T18:34:14.188Z,18.12
2022-09-12T18:36:46.928Z,18.06
2022-09-12T18:39:15.527Z,18.01
2022-09-12T18:41:43.884Z,17.97
2022-09-12T18:44:12.730Z,17.90
2022-09-12T18:46:40.844Z,17.80
2022-09-12T18:49:09.802Z,17.74
2022-09-12T18:51:40.160Z,17.72
2022-09-12T18:54:13.777Z,17.64
2022-09-12T18:56:43.713Z,17.64
2022-09-12T18:59:14.187Z,17.60
2022-09-12T19:01:43.162Z,17.55
2022-09-12T19:04:13.869Z,17.48
2022-09-12T19:06:45.753Z,17.47
2022-09-12T19:09:18.703Z,17.42
2022-09-12T19:11:50.455Z,17.40
2022-09-12T19:14:24.076Z,17.36
2022-09-12T19:16:52.509Z,17.31
2022-09-12T19:19:20.625Z,17.27
2022-09-12T19:21:47.832Z,17.22
2022-09-12T19:24:16.665Z,17.14
2022-09-12T19:26:44.885Z,17.11
2022-09-12T19:29:13.960Z,17.06
2022-09-12T19:31:41.439Z,16.97
2022-09-12T19:34:10.720Z,16.96
2022-09-12T19:36:47.426Z,16.91
2022-09-12T19:39:19.845Z,16.88
2022-09-12T19:41:48.331Z,16.83
2022-09-12T19:44:16.068Z,16.76
2022-09-12T19:46:43.572Z,16.69
2022-09-12T19:49:12.988Z,16.65
2022-09-12T19:51:40.928Z,16.60
2022-09-12T19:54:08.266Z,16.55
2022-09-12T19:56:35.674Z,16.54
2022-09-12T19:59:03.244Z,16.49
2022-09-12T20:01:30.555Z,16.48
2022-09-12T20:03:59.197Z,16.42
2022-09-12T20:06:27.521Z,16.43
2022-09-12T20:08:55.980Z,16.35
2022-09-12T20:11:24.552Z,16.30
2022-09-12T20:13:52.608Z,16.25
2022-09-12T20:16:23.280Z,16.22
2022-09-12T20:19:00.656Z,16.15
2022-09-12T20:21:31.869Z,16.13
2022-09-12T20:24:11.015Z,16.04
2022-09-12T20:26:39.905Z,15.98
2022-09-12T20:29:08.250Z,15.95
2022-09-12T20:31:38.470Z,15.94
2022-09-12T20:34:07.438Z,15.92
2022-09-12T20:36:34.788Z,15.87
2022-09-12T20:39:03.109Z,15.84
2022-09-12T20:41:34.436Z,15.82
2022-09-12T20:44:02.048Z,15.79
2022-09-12T20:46:29.342Z,15.81
2022-09-12T20:48:58.565Z,15.80
2022-09-12T20:51:26.803Z,15.73
2022-09-12T20:54:00.423Z,15.67
2022-09-12T20:56:29.489Z,15.65
2022-09-12T20:58:57.931Z,15.63
2022-09-12T21:01:27.724Z,15.58
2022-09-12T21:03:55.245Z,15.57
2022-09-12T21:06:22.744Z,15.53
2022-09-12T21:08:50.995Z,15.51
2022-09-12T21:11:19.783Z,15.50
2022-09-12T21:13:47.185Z,15.47
2022-09-12T21:16:18.359Z,15.46
2022-09-12T21:18:46.883Z,15.43
2022-09-12T21:21:16.362Z,15.44
2022-09-12T21:23:43.669Z,15.44
2022-09-12T21:26:11.069Z,15.42
2022-09-12T21:28:38.205Z,15.44
2022-09-12T21:31:05.887Z,15.45
2022-09-12T21:33:33.413Z,15.48
2022-09-12T21:36:06.429Z,15.51
2022-09-12T21:38:34.439Z,15.51
2022-09-12T21:41:14.801Z,15.45
2022-09-12T21:43:43.361Z,15.44
2022-09-12T21:46:12.037Z,15.49
2022-09-12T21:48:39.437Z,15.53
2022-09-12T21:51:07.192Z,15.56
2022-09-12T21:53:34.691Z,15.56
2022-09-12T21:56:08.052Z,15.52
2022-09-12T21:58:37.437Z,15.46
2022-09-12T22:01:06.137Z,15.40
2022-09-12T22:03:33.493Z,15.34
2022-09-12T22:06:03.854Z,15.31
2022-09-12T22:08:33.628Z,15.25
2022-09-12T22:11:05.699Z,15.19
2022-09-12T22:13:33.799Z,15.17
2022-09-12T22:16:03.119Z,15.13
2022-09-12T22:18:34.040Z,15.14
2022-09-12T22:21:07.312Z,15.13
2022-09-12T22:23:53.717Z,15.10
2022-09-12T22:26:21.270Z,15.04
2022-09-12T22:28:50.142Z,15.02
2022-09-12T22:31:18.045Z,15.00
2022-09-12T22:33:45.821Z,14.97
2022-09-12T22:36:13.822Z,14.93
2022-09-12T22:38:41.176Z,14.90
2022-09-12T22:41:11.572Z,14.87
2022-09-12T22:43:39.407Z,14.85
2022-09-12T22:46:09.589Z,14.82
2022-09-12T22:48:38.245Z,14.76
2022-09-12T22:51:06.342Z,14.66
2022-09-12T22:53:35.542Z,14.63
2022-09-12T22:56:05.191Z,14.61
2022-09-12T22:58:35.666Z,14.59
2022-09-12T23:01:06.672Z,14.59
2022-09-12T23:03:35.449Z,14.59
2022-09-12T23:06:04.500Z,14.56
2022-09-12T23:08:34.698Z,14.53
2022-09-12T23:11:20.918Z,14.47
2022-09-12T23:13:51.206Z,14.48
2022-09-12T23:16:26.139Z,14.44
2022-09-12T23:18:53.583Z,14.40
2022-09-12T23:21:22.092Z,14.38
2022-09-12T23:23:50.684Z,14.36
2022-09-12T23:26:22.225Z,14.32
2022-09-12T23:28:56.663Z,14.29
2022-09-12T23:31:30.332Z,14.25
2022-09-12T23:34:02.101Z,14.21
2022-09-12T23:36:29.891Z,14.20
2022-09-12T23:38:57.586Z,14.17
2022-09-12T23:41:25.402Z,14.16
2022-09-12T23:43:52.883Z,14.12
2022-09-12T23:46:22.033Z,14.09
2022-09-12T23:48:49.870Z,14.06
2022-09-12T23:51:17.619Z,14.04
2022-09-12T23:53:44.800Z,14.00
2022-09-12T23:56:12.061Z,13.94
2022-09-12T23:58:39.467Z,13.92
